Time;durP1;ratioP1;P1;durP2;ratioP2;P2;SDS_P1;SDS_P2;PMS_P1;PMS_P2;Temp;Humidity;BMP_temperature;BMP_pressure;BME280_temperature;BME280_humidity;BME280_pressure;Samples;Min_cycle;Max_cycle;Signal;HPM_P1;HPM_P2
2021/05/27 00:00:43;;;;;;;5.40;2.97;;;8.00;99.90;;;6.49;100.00;100465.34;5006169;28;20081;-77
2021/05/27 00:03:12;;;;;;;9.50;3.50;;;7.90;99.90;;;6.45;100.00;100468.97;5011241;28;20548;-76
2021/05/27 00:05:38;;;;;;;5.28;3.45;;;7.90;99.90;;;6.39;100.00;100473.56;5002311;28;20069;-77
2021/05/27 00:08:05;;;;;;;13.27;2.90;;;7.80;99.90;;;6.35;100.00;100473.69;5008617;28;20543;-78
2021/05/27 00:10:33;;;;;;;7.60;3.40;;;7.80;99.90;;;6.30;100.00;100475.56;4996467;28;20684;-77
2021/05/27 00:13:00;;;;;;;6.95;4.07;;;7.80;99.90;;;6.23;100.00;100468.84;4966787;28;20145;-76
2021/05/27 00:15:31;;;;;;;6.22;3.28;;;7.60;99.90;;;6.15;100.00;100476.97;4975113;28;20063;-77
2021/05/27 00:17:59;;;;;;;9.07;3.30;;;7.60;99.90;;;6.13;100.00;100480.50;5026365;28;20127;-76
2021/05/27 00:20:26;;;;;;;7.55;3.45;;;7.50;99.90;;;6.04;100.00;100479.03;4998562;28;20080;-77
2021/05/27 00:22:52;;;;;;;6.38;3.53;;;7.50;99.90;;;6.05;100.00;100479.91;4991966;28;20080;-77
2021/05/27 00:25:19;;;;;;;5.95;3.88;;;7.60;99.90;;;6.07;100.00;100478.97;5013493;28;20081;-76
2021/05/27 00:27:47;;;;;;;8.70;3.90;;;7.60;99.90;;;6.10;100.00;100470.16;5001610;28;20063;-77
2021/05/27 00:30:16;;;;;;;6.18;4.30;;;7.70;99.90;;;6.15;100.00;100483.91;4975467;28;20168;-77
2021/05/27 00:32:42;;;;;;;7.65;4.72;;;7.60;99.90;;;6.09;100.00;100478.88;5018466;28;20098;-77
2021/05/27 00:35:10;;;;;;;8.10;4.55;;;7.50;99.90;;;6.01;100.00;100481.75;4999130;28;20155;-77
2021/05/27 00:37:36;;;;;;;8.88;4.55;;;7.50;99.90;;;6.00;100.00;100484.41;4977729;28;20065;-77
2021/05/27 00:40:08;;;;;;;11.95;5.43;;;7.60;99.90;;;6.13;100.00;100483.13;5001904;28;20067;-78
2021/05/27 00:42:34;;;;;;;8.75;5.68;;;7.50;99.90;;;6.15;100.00;100483.91;5010690;28;20180;-77
2021/05/27 00:45:10;;;;;;;14.45;5.80;;;7.60;99.90;;;6.13;100.00;100484.00;5034623;28;20511;-76
2021/05/27 00:47:36;;;;;;;10.73;5.72;;;7.50;99.90;;;6.06;100.00;100486.84;5017786;28;20077;-77
2021/05/27 00:50:06;;;;;;;7.43;5.38;;;7.50;99.90;;;5.98;100.00;100484.44;5005226;28;20072;-76
2021/05/27 00:52:32;;;;;;;11.18;5.25;;;7.40;99.90;;;5.88;100.00;100489.09;4994714;28;20067;-77
2021/05/27 00:55:00;;;;;;;12.65;5.90;;;7.40;99.90;;;5.92;100.00;100490.72;4981099;28;20441;-78
2021/05/27 00:57:36;;;;;;;9.20;5.78;;;7.50;99.90;;;5.98;100.00;100484.44;5008855;28;20069;-77
2021/05/27 01:00:08;;;;;;;14.73;5.75;;;7.40;99.90;;;6.01;100.00;100488.75;5000050;28;20081;-78
2021/05/27 01:02:34;;;;;;;15.55;5.85;;;7.50;99.90;;;6.02;100.00;100482.59;4982438;28;20097;-76
2021/05/27 01:05:00;;;;;;;12.93;6.60;;;7.50;99.90;;;6.02;100.00;100488.69;5001106;28;20139;-77
2021/05/27 01:07:29;;;;;;;11.05;6.53;;;7.50;99.90;;;6.05;100.00;100485.16;4989820;28;20064;-78
2021/05/27 01:09:55;;;;;;;12.60;6.72;;;7.60;99.90;;;6.04;100.00;100484.25;4996209;28;20063;-77
2021/05/27 01:12:21;;;;;;;11.48;6.95;;;7.60;99.90;;;6.09;100.00;100492.84;5006384;28;20071;-79
2021/05/27 01:17:31;;;;;;;10.05;6.63;;;7.60;99.90;;;6.13;100.00;100493.56;5001488;28;20142;-77
2021/05/27 01:19:57;;;;;;;12.90;7.25;;;7.60;99.90;;;6.18;100.00;100485.56;5015554;28;22224;-77
2021/05/27 01:22:24;;;;;;;11.98;7.00;;;7.60;99.90;;;6.18;100.00;100496.03;4981121;28;20073;-77
2021/05/27 01:24:51;;;;;;;17.67;7.22;;;7.70;99.90;;;6.17;100.00;100492.56;5000422;28;20076;-76
2021/05/27 01:27:17;;;;;;;11.13;6.40;;;7.60;99.90;;;6.21;100.00;100491.56;5012049;28;20064;-76
2021/05/27 01:29:51;;;;;;;11.07;7.20;;;7.70;99.90;;;6.26;100.00;100494.03;5027315;28;20213;-76
2021/05/27 01:32:17;;;;;;;16.23;7.18;;;7.80;99.90;;;6.26;100.00;100488.81;4988740;28;20095;-77
2021/05/27 01:34:43;;;;;;;15.13;7.40;;;7.80;99.90;;;6.29;100.00;100488.72;4983860;28;20167;-78
2021/05/27 01:37:09;;;;;;;15.15;7.88;;;7.80;99.90;;;6.35;100.00;100489.38;5004746;28;20067;-76
2021/05/27 01:39:35;;;;;;;10.45;7.40;;;7.90;99.90;;;6.36;100.00;100488.44;4989253;28;20109;-77
2021/05/27 01:42:02;;;;;;;15.25;7.35;;;7.90;99.90;;;6.40;100.00;100488.38;5018966;28;20091;-76
2021/05/27 01:44:28;;;;;;;14.00;7.97;;;7.90;99.90;;;6.49;100.00;100493.28;5004813;28;20117;-77
2021/05/27 01:46:59;;;;;;;14.55;8.20;;;8.00;99.90;;;6.52;100.00;100487.94;5000661;28;20067;-76
2021/05/27 01:49:25;;;;;;;19.33;7.90;;;8.00;99.90;;;6.58;100.00;100488.59;4994031;28;20615;-76
2021/05/27 01:51:51;;;;;;;11.63;7.85;;;8.10;99.90;;;6.64;100.00;100492.75;5000959;28;20074;-76
2021/05/27 01:54:18;;;;;;;15.32;8.43;;;8.10;99.90;;;6.73;100.00;100486.38;4991482;28;20073;-76
2021/05/27 01:56:45;;;;;;;12.95;7.75;;;8.20;99.90;;;6.80;100.00;100493.09;4987821;28;20060;-77
2021/05/27 01:59:16;;;;;;;15.60;7.90;;;8.30;99.90;;;6.83;100.00;100495.63;4989600;28;20421;-76
2021/05/27 02:01:42;;;;;;;12.55;7.90;;;8.30;99.90;;;6.83;100.00;100495.63;5021437;28;20093;-76
2021/05/27 02:04:09;;;;;;;13.63;7.88;;;8.30;99.90;;;6.83;100.00;100490.38;4999377;28;20519;-77
2021/05/27 02:06:34;;;;;;;12.95;8.43;;;8.30;99.90;;;6.86;100.00;100499.88;5018336;28;20140;-80
2021/05/27 02:09:12;;;;;;;13.93;7.32;;;8.30;99.90;;;6.86;100.00;100499.88;5032548;28;20064;-78
2021/05/27 02:11:43;;;;;;;14.38;7.93;;;8.30;99.90;;;6.89;100.00;100497.13;5022890;28;20068;-76
2021/05/27 02:14:11;;;;;;;14.13;7.93;;;8.40;99.90;;;6.91;100.00;100496.22;5000275;28;20157;-77
2021/05/27 02:16:39;;;;;;;13.85;8.07;;;8.40;99.90;;;6.95;100.00;100491.69;4990620;28;20099;-79
2021/05/27 02:19:06;;;;;;;10.93;7.13;;;8.40;99.90;;;6.97;100.00;100498.59;5013755;28;20511;-76
2021/05/27 02:21:35;;;;;;;10.55;7.53;;;8.50;99.90;;;7.05;100.00;100498.31;5006939;28;20130;-77
2021/05/27 02:24:05;;;;;;;15.43;7.75;;;8.50;99.90;;;7.11;100.00;100495.50;5005751;28;20138;-77
2021/05/27 02:26:32;;;;;;;16.27;7.80;;;8.50;99.90;;;7.08;100.00;100495.59;5027861;28;20073;-77
2021/05/27 02:29:00;;;;;;;19.65;7.38;;;8.60;99.90;;;7.16;100.00;100497.94;4999081;28;20079;-77
2021/05/27 02:31:27;;;;;;;13.07;7.38;;;8.60;99.90;;;7.17;100.00;100500.50;5020455;28;20060;-77
2021/05/27 02:33:53;;;;;;;10.80;7.45;;;8.60;99.90;;;7.22;100.00;100499.50;4979245;28;20614;-77
2021/05/27 02:36:20;;;;;;;9.95;6.85;;;8.70;99.90;;;7.23;100.00;100494.19;4989502;28;20080;-76
2021/05/27 02:38:46;;;;;;;13.85;7.72;;;8.70;99.90;;;7.27;100.00;100497.56;4985468;28;20595;-77
2021/05/27 02:41:13;;;;;;;20.38;8.13;;;8.60;99.90;;;7.21;100.00;100503.00;5008883;28;20131;-77
2021/05/27 02:43:39;;;;;;;15.65;7.70;;;8.60;99.90;;;7.22;100.00;100497.72;5003267;28;20546;-79
2021/05/27 02:46:05;;;;;;;11.13;7.75;;;8.70;99.90;;;7.25;100.00;100496.75;4979191;28;20079;-78
2021/05/27 02:48:32;;;;;;;13.73;7.40;;;8.70;99.90;;;7.26;100.00;100498.47;5016142;28;20084;-77
2021/05/27 02:51:00;;;;;;;14.20;8.15;;;8.70;99.90;;;7.27;100.00;100502.78;5001236;28;20075;-77
2021/05/27 02:53:26;;;;;;;12.20;7.47;;;8.70;99.90;;;7.31;100.00;100500.00;5020109;28;20060;-78
2021/05/27 02:55:52;;;;;;;15.27;7.95;;;8.70;99.90;;;7.30;100.00;100502.66;4986013;28;20080;-77
2021/05/27 02:58:19;;;;;;;16.38;7.75;;;8.70;99.90;;;7.32;100.00;100504.34;5007678;28;20569;-77
2021/05/27 03:00:46;;;;;;;12.30;8.60;;;8.80;99.90;;;7.35;100.00;100498.13;5002564;28;20082;-77
2021/05/27 03:03:16;;;;;;;18.27;9.48;;;8.80;99.90;;;7.38;100.00;100498.00;4998948;28;20084;-77
2021/05/27 03:05:43;;;;;;;14.55;8.43;;;8.80;99.90;;;7.40;100.00;100498.81;5006553;28;20071;-78
2021/05/27 03:08:09;;;;;;;15.30;8.43;;;8.90;99.90;;;7.46;100.00;100498.59;4970737;28;20206;-76
2021/05/27 03:10:35;;;;;;;13.60;9.15;;;8.90;99.90;;;7.46;100.00;100495.97;4993821;28;20521;-77
2021/05/27 03:13:21;;;;;;;12.95;8.02;;;8.90;99.90;;;7.47;100.00;100497.66;5039396;27;20435;-78
2021/05/27 03:15:47;;;;;;;12.75;7.75;;;8.90;99.90;;;7.46;100.00;100495.97;4996322;28;20056;-78
2021/05/27 03:18:13;;;;;;;13.25;8.68;;;8.90;99.90;;;7.46;100.00;100498.59;5003837;28;20154;-77
2021/05/27 03:20:40;;;;;;;17.25;8.52;;;8.90;99.90;;;7.49;100.00;100492.38;4988119;28;20058;-78
2021/05/27 03:23:06;;;;;;;13.13;7.88;;;8.90;99.90;;;7.46;100.00;100490.72;5020978;28;20091;-77
2021/05/27 03:25:33;;;;;;;17.00;8.52;;;8.90;99.90;;;7.48;100.00;100494.13;4989538;28;20062;-77
2021/05/27 03:28:04;;;;;;;18.13;8.77;;;8.90;99.90;;;7.51;100.00;100493.16;5000932;28;20117;-77
2021/05/27 03:30:30;;;;;;;15.07;8.10;;;8.90;99.90;;;7.50;100.00;100494.94;4983461;28;20066;-78
2021/05/27 03:32:56;;;;;;;12.90;7.78;;;8.90;99.90;;;7.50;100.00;100494.09;4996312;28;20074;-79
2021/05/27 03:35:22;;;;;;;14.77;8.25;;;8.90;99.90;;;7.49;100.00;100493.22;5011445;28;20078;-78
2021/05/27 03:37:48;;;;;;;18.02;8.85;;;8.90;99.90;;;7.51;100.00;100496.63;5000188;28;20063;-77
2021/05/27 03:40:18;;;;;;;12.52;8.40;;;8.90;99.90;;;7.54;100.00;100499.16;4983488;28;20088;-78
2021/05/27 03:42:50;;;;;;;14.88;8.73;;;8.90;99.90;;;7.51;100.00;100494.00;5006082;28;20071;-77
2021/05/27 03:45:26;;;;;;;13.90;8.20;;;8.90;99.90;;;7.52;100.00;100498.34;5027875;28;20623;-76
2021/05/27 03:47:54;;;;;;;15.23;8.27;;;8.90;99.90;;;7.52;100.00;100498.34;4986945;28;20078;-78
2021/05/27 03:50:22;;;;;;;13.25;8.73;;;9.00;99.90;;;7.52;100.00;100508.00;5008578;28;20354;-78
2021/05/27 03:52:49;;;;;;;13.75;8.02;;;8.90;99.90;;;7.50;100.00;100508.03;4999548;28;20534;-78
2021/05/27 03:55:19;;;;;;;15.60;8.48;;;8.90;99.90;;;7.56;100.00;100504.34;5023138;28;20161;-78
2021/05/27 03:57:46;;;;;;;15.20;8.68;;;9.00;99.90;;;7.54;100.00;100509.63;5005980;28;20116;-77
2021/05/27 04:03:04;;;;;;;12.98;8.63;;;8.90;99.90;;;7.54;100.00;100514.88;5015680;28;20118;-77
2021/05/27 04:08:16;;;;;;;14.68;9.65;;;9.00;99.90;;;7.63;100.00;100518.91;4999291;28;20073;-77
2021/05/27 04:10:44;;;;;;;17.98;8.88;;;9.00;99.90;;;7.64;100.00;100522.38;4984596;28;20087;-78
2021/05/27 04:13:12;;;;;;;20.27;9.00;;;9.10;99.90;;;7.68;100.00;100529.22;4993542;28;20090;-77
2021/05/27 04:15:39;;;;;;;20.08;9.10;;;9.10;99.90;;;7.73;100.00;100524.66;5011012;28;20083;-77
2021/05/27 04:18:18;;;;;;;18.20;9.50;;;9.10;99.90;;;7.73;100.00;100525.53;4996837;28;22233;-78
2021/05/27 04:20:55;;;;;;;15.43;9.40;;;9.10;99.90;;;7.78;100.00;100535.81;5004097;28;22287;-78
2021/05/27 04:23:37;;;;;;;18.83;9.43;;;9.20;99.90;;;7.80;100.00;100540.09;4994517;28;20469;-77
2021/05/27 04:26:14;;;;;;;17.73;9.10;;;9.20;99.90;;;7.83;100.00;100546.13;4998086;28;20058;-77
2021/05/27 04:28:46;;;;;;;15.27;9.02;;;9.30;99.90;;;7.90;100.00;100540.59;4973343;28;20064;-77
2021/05/27 04:31:17;;;;;;;14.27;9.35;;;9.30;99.90;;;7.88;100.00;100547.66;5003364;28;20154;-78
2021/05/27 04:33:42;;;;;;;22.67;8.95;;;9.30;99.90;;;7.94;100.00;100546.56;4989300;28;20082;-78
2021/05/27 04:36:13;;;;;;;12.93;8.98;;;9.30;99.90;;;8.05;100.00;100539.13;5002782;28;20107;-77
2021/05/27 04:38:43;;;;;;;17.48;8.70;;;9.50;99.90;;;8.19;100.00;100541.22;4950829;28;20145;-77
2021/05/27 04:41:09;;;;;;;23.38;9.68;;;9.60;99.90;;;8.43;99.80;100536.81;4990777;28;20083;-77
2021/05/27 04:43:35;;;;;;;17.35;10.10;;;10.00;99.90;;;8.99;98.53;100537.97;4981957;28;20067;-81
2021/05/27 04:46:02;;;;;;;12.85;9.00;;;11.00;99.90;;;10.33;91.63;100529.28;4995536;28;20058;-77
2021/05/27 04:48:28;;;;;;;16.08;7.50;;;12.10;99.90;;;11.54;86.56;100520.41;5003888;28;20055;-77
2021/05/27 04:50:58;;;;;;;11.85;5.45;;;12.10;99.90;;;10.71;86.70;100529.97;4987601;28;20069;-78
2021/05/27 04:53:26;;;;;;;8.82;4.95;;;11.30;99.90;;;9.92;90.71;100530.28;4981243;28;20055;-78
2021/05/27 04:55:53;;;;;;;11.43;6.30;;;10.80;99.90;;;9.56;92.57;100527.56;4973268;28;20097;-79
2021/05/27 04:58:20;;;;;;;12.50;5.50;;;10.70;99.90;;;9.57;92.91;100526.66;4986953;28;20089;-77
2021/05/27 05:00:47;;;;;;;11.90;6.35;;;10.90;99.90;;;9.76;91.66;100530.16;4978860;28;20550;-78
2021/05/27 05:03:13;;;;;;;10.00;5.82;;;11.00;99.90;;;10.07;90.94;100534.81;4994801;28;20171;-78
2021/05/27 05:05:40;;;;;;;14.88;6.10;;;11.90;99.90;;;11.48;84.55;100529.50;4989955;28;20161;-78
2021/05/27 05:08:07;;;;;;;7.97;5.05;;;12.80;99.90;;;12.17;80.14;100524.03;4985950;28;20071;-77
2021/05/27 05:10:34;;;;;;;5.47;4.30;;;13.40;99.90;;;12.71;77.39;100524.44;4957358;28;20054;-78
2021/05/27 05:13:01;;;;;;;6.32;4.00;;;14.10;99.90;;;13.60;74.49;100521.72;4974746;28;20088;-78
2021/05/27 05:15:30;;;;;;;7.40;4.32;;;14.50;99.90;;;14.15;71.81;100526.16;4972133;28;20067;-77
2021/05/27 05:18:08;;;;;;;8.55;4.43;;;14.30;99.90;;;13.25;75.11;100531.81;5001681;28;20058;-80
2021/05/27 05:20:48;;;;;;;7.55;4.13;;;13.10;99.90;;;11.75;80.70;100547.44;4973557;28;20152;-78
2021/05/27 05:23:17;;;;;;;7.38;4.30;;;12.40;99.90;;;11.30;84.15;100546.31;4955945;28;20076;-79
2021/05/27 05:25:43;;;;;;;7.60;4.55;;;12.10;99.90;;;11.16;84.76;100551.44;4989925;28;20503;-78
2021/05/27 05:28:12;;;;;;;8.45;5.22;;;11.90;99.90;;;11.00;86.00;100554.84;4983310;28;20059;-78
2021/05/27 05:30:38;;;;;;;8.95;4.82;;;12.00;99.90;;;10.97;88.00;100560.31;4970742;28;20422;-77
2021/05/27 05:33:07;;;;;;;9.32;5.57;;;12.10;99.90;;;11.08;86.80;100559.75;4984598;28;20496;-78
2021/05/27 05:35:33;;;;;;;7.85;4.53;;;12.00;99.90;;;10.98;87.26;100561.13;4988410;28;20058;-77
2021/05/27 05:37:59;;;;;;;7.70;4.80;;;12.10;99.90;;;11.04;87.46;100564.31;4989944;28;20403;-79
2021/05/27 05:40:28;;;;;;;7.13;4.47;;;12.10;99.90;;;11.12;86.13;100566.53;4988506;28;20505;-79
2021/05/27 05:42:56;;;;;;;7.50;4.32;;;12.10;99.90;;;11.12;84.96;100566.53;4965930;28;22825;-77
2021/05/27 05:45:22;;;;;;;8.50;4.55;;;12.10;99.90;;;11.16;85.87;100570.72;4985463;28;20067;-77
2021/05/27 05:47:51;;;;;;;8.13;5.43;;;12.20;99.90;;;11.08;85.60;100572.94;5005221;28;20380;-78
2021/05/27 05:50:45;;;;;;;7.55;4.45;;;12.30;99.90;;;11.39;84.67;100566.91;5005533;28;20067;-79
2021/05/27 05:53:08;;;;;;;6.18;3.72;;;12.30;99.90;;;11.20;84.46;100574.06;4964328;28;20082;-78
2021/05/27 05:55:35;;;;;;;5.90;3.17;;;12.10;99.90;;;11.01;85.53;100577.63;4973298;28;20153;-77
2021/05/27 05:58:02;;;;;;;5.45;3.70;;;12.00;99.90;;;10.83;87.34;100574.16;5007754;28;20105;-77
2021/05/27 06:00:29;;;;;;;6.63;3.92;;;11.80;99.90;;;10.60;87.21;100577.91;4986116;28;20111;-78
2021/05/27 06:02:59;;;;;;;7.55;4.00;;;11.80;99.90;;;10.67;88.32;100583.75;4995123;28;20058;-77
2021/05/27 06:05:25;;;;;;;6.75;3.80;;;11.80;99.90;;;10.73;87.25;100580.78;4971603;28;20073;-77
2021/05/27 06:07:51;;;;;;;10.25;4.13;;;11.70;99.90;;;10.60;87.41;100582.34;4983580;28;20066;-77
2021/05/27 06:10:17;;;;;;;9.63;3.80;;;11.80;99.90;;;10.72;87.94;100587.00;4981620;28;20069;-76
2021/05/27 06:12:43;;;;;;;6.25;3.75;;;12.00;99.90;;;10.84;86.83;100591.66;5011933;28;20156;-77
2021/05/27 06:15:12;;;;;;;8.15;4.03;;;12.00;99.90;;;10.90;86.01;100585.22;4985957;28;20131;-77
2021/05/27 06:17:38;;;;;;;9.68;4.32;;;12.00;99.90;;;10.88;86.14;100590.59;5001133;28;20502;-77
2021/05/27 06:20:05;;;;;;;7.07;4.07;;;12.00;99.90;;;10.96;85.59;100586.72;4995258;28;20066;-77
2021/05/27 06:22:30;;;;;;;5.72;4.00;;;12.10;99.90;;;11.03;86.04;100591.56;4994003;28;20073;-77
2021/05/27 06:24:56;;;;;;;7.82;3.92;;;12.00;99.90;;;10.87;87.87;100596.78;5002761;28;20071;-76
2021/05/27 06:27:22;;;;;;;5.80;3.42;;;12.10;99.90;;;10.98;86.46;100598.88;4996056;28;20914;-78
2021/05/27 06:29:48;;;;;;;9.70;3.63;;;12.60;99.90;;;11.11;85.93;100601.75;4951194;28;21193;-79
2021/05/27 06:32:17;;;;;;;8.35;3.90;;;12.10;99.90;;;11.08;85.56;100599.28;4975881;28;20085;-77
2021/05/27 06:34:44;;;;;;;5.80;3.63;;;12.20;99.90;;;11.24;84.86;100604.59;5000831;28;20067;-77
2021/05/27 06:37:10;;;;;;;6.13;2.53;;;12.50;99.90;;;11.52;84.15;100604.03;5003603;28;20436;-77
2021/05/27 06:39:36;;;;;;;6.60;2.63;;;12.60;99.90;;;11.49;83.06;100601.56;4964814;28;20071;-77
2021/05/27 06:42:02;;;;;;;6.10;2.75;;;12.40;99.90;;;11.31;82.55;100605.97;5005951;28;20070;-77
2021/05/27 06:44:30;;;;;;;5.35;3.13;;;12.20;99.90;;;11.15;85.51;100616.47;4977887;28;20068;-77
2021/05/27 06:46:57;;;;;;;3.92;2.70;;;12.30;99.90;;;11.21;84.18;100618.78;4991692;28;20055;-78
2021/05/27 06:49:23;;;;;;;3.95;2.65;;;12.20;99.90;;;11.02;83.73;100610.13;4966781;28;20074;-78
2021/05/27 06:51:51;;;;;;;3.42;2.63;;;12.10;99.90;;;11.01;85.13;100618.94;4983817;28;20520;-78
2021/05/27 06:54:17;;;;;;;7.28;3.00;;;12.10;99.90;;;11.00;84.86;100620.72;4987174;28;20076;-78
2021/05/27 06:56:42;;;;;;;3.78;2.20;;;12.00;99.90;;;10.81;85.94;100618.16;4952731;28;20118;-77
2021/05/27 06:59:08;;;;;;;5.68;2.80;;;11.90;99.90;;;10.74;85.74;100618.53;4961648;28;20067;-77
2021/05/27 07:01:37;;;;;;;5.28;2.30;;;11.80;99.90;;;10.62;85.14;100614.69;4953919;28;20067;-77
2021/05/27 07:04:03;;;;;;;5.53;2.83;;;11.70;99.90;;;10.56;87.66;100621.13;4967906;28;20545;-78
2021/05/27 07:06:29;;;;;;;4.60;2.70;;;11.80;99.90;;;10.63;86.11;100619.91;4973090;28;20085;-77
2021/05/27 07:08:54;;;;;;;3.63;2.08;;;11.90;99.90;;;10.77;86.24;100621.84;5007234;28;20085;-77
2021/05/27 07:11:21;;;;;;;5.50;2.17;;;12.00;99.90;;;10.81;85.18;100619.94;4976923;28;20459;-78
2021/05/27 07:13:47;;;;;;;4.68;2.22;;;12.10;99.90;;;10.97;85.27;100620.00;5002921;28;20062;-78
2021/05/27 07:16:14;;;;;;;4.32;1.98;;;12.10;99.90;;;10.95;84.35;100621.88;4986856;28;20056;-78
2021/05/27 07:18:43;;;;;;;5.28;1.80;;;12.00;99.90;;;10.86;83.89;100623.19;4992287;28;20061;-78
2021/05/27 07:21:08;;;;;;;8.15;2.03;;;12.00;99.90;;;10.92;85.11;100622.03;4995515;28;20078;-78
2021/05/27 07:23:34;;;;;;;3.33;1.75;;;12.10;99.90;;;11.00;85.42;100625.16;4984974;28;21826;-78
2021/05/27 07:26:02;;;;;;;6.78;1.83;;;12.20;99.90;;;11.05;84.94;100631.03;4988444;28;20133;-79
2021/05/27 07:28:29;;;;;;;4.07;1.77;;;12.10;99.90;;;11.03;84.62;100622.34;4991217;28;20070;-77
2021/05/27 07:30:58;;;;;;;7.65;2.10;;;12.10;99.90;;;10.92;84.29;100628.16;5012307;28;20102;-78
2021/05/27 07:33:24;;;;;;;5.55;1.92;;;12.10;99.90;;;11.06;84.40;100638.88;4969710;28;20092;-78
2021/05/27 07:35:50;;;;;;;3.58;1.80;;;12.20;99.90;;;11.15;83.49;100642.81;4990062;28;20149;-78
2021/05/27 07:38:16;;;;;;;4.03;2.17;;;12.40;99.90;;;11.31;82.93;100634.97;4947401;28;20062;-78
2021/05/27 07:40:42;;;;;;;5.38;2.38;;;12.30;99.90;;;11.14;83.80;100643.72;4979503;28;20074;-79
2021/05/27 07:43:08;;;;;;;4.53;2.10;;;12.20;99.90;;;11.16;84.01;100641.88;4957382;28;20188;-79
2021/05/27 07:45:36;;;;;;;3.35;2.28;;;12.30;99.90;;;11.23;83.49;100639.78;4973901;28;20062;-78
2021/05/27 07:48:03;;;;;;;9.02;2.20;;;12.40;99.90;;;11.22;83.57;100644.22;4984406;28;20062;-80
2021/05/27 07:50:29;;;;;;;2.85;1.85;;;12.40;99.90;;;11.28;82.62;100635.16;5003038;28;20085;-79
2021/05/27 07:52:55;;;;;;;3.70;1.42;;;12.40;99.90;;;11.22;82.52;100638.94;4988994;28;20078;-78
2021/05/27 07:55:21;;;;;;;5.78;2.05;;;12.30;99.90;;;11.13;82.99;100652.59;4975251;28;20070;-79
2021/05/27 07:57:47;;;;;;;5.35;1.80;;;12.30;99.90;;;11.18;82.32;100653.19;4990637;28;20058;-78
2021/05/27 08:00:19;;;;;;;7.38;2.33;;;12.30;99.90;;;11.26;83.61;100640.50;4989738;28;20481;-78
2021/05/27 08:02:48;;;;;;;2.60;1.70;;;12.60;99.90;;;11.67;83.84;100648.06;4989816;28;20151;-78
2021/05/27 08:05:15;;;;;;;4.25;1.70;;;13.10;99.90;;;12.25;80.52;100646.75;5014686;28;20094;-78
2021/05/27 08:07:42;;;;;;;4.50;1.50;;;13.50;99.90;;;12.59;77.56;100649.28;4999134;28;20108;-78
2021/05/27 08:10:10;;;;;;;2.47;1.63;;;13.70;99.90;;;12.93;75.91;100638.50;5004346;28;20070;-78
2021/05/27 08:12:36;;;;;;;1.52;1.23;;;14.20;99.90;;;13.84;75.02;100642.88;4957584;28;20161;-78
2021/05/27 08:15:05;;;;;;;4.22;1.27;;;14.60;99.90;;;14.08;70.07;100637.84;4979122;28;20072;-77
2021/05/27 08:17:32;;;;;;;1.75;1.08;;;15.10;99.90;;;14.65;70.67;100635.13;4992922;28;20066;-77
2021/05/27 08:20:00;;;;;;;3.72;1.30;;;15.30;99.90;;;14.88;69.38;100638.91;4995506;28;20071;-78
2021/05/27 08:22:30;;;;;;;3.13;1.15;;;16.40;99.90;;;16.08;61.78;100628.06;4993374;28;20061;-77
2021/05/27 08:24:56;;;;;;;2.70;0.93;;;17.20;99.90;;;16.58;58.38;100634.19;5004516;28;20059;-77
2021/05/27 08:27:23;;;;;;;5.65;1.00;;;16.20;99.90;;;15.14;64.27;100636.31;4986748;28;20061;-78
2021/05/27 08:29:49;;;;;;;1.42;0.80;;;15.70;99.90;;;14.61;64.56;100643.38;5007093;28;20535;-78
2021/05/27 08:32:17;;;;;;;3.13;1.02;;;15.30;99.90;;;14.39;66.19;100647.38;4996597;28;20088;-78
2021/05/27 08:34:43;;;;;;;5.15;1.90;;;15.20;99.90;;;14.79;68.19;100634.22;4989462;28;20090;-78
2021/05/27 08:37:09;;;;;;;2.85;1.00;;;16.40;99.90;;;15.97;61.33;100633.31;5004241;28;20518;-79
2021/05/27 08:39:37;;;;;;;2.22;0.75;;;17.50;99.90;;;17.31;61.50;100634.16;4964541;28;20543;-79
2021/05/27 08:42:03;;;;;;;2.55;0.80;;;18.00;99.90;;;17.00;59.38;100641.81;4998697;28;20064;-77
2021/05/27 08:44:29;;;;;;;4.50;1.02;;;16.80;99.90;;;15.70;61.12;100642.22;4975465;28;20057;-78
2021/05/27 08:46:55;;;;;;;1.52;1.00;;;16.00;99.90;;;14.97;64.62;100648.06;4986540;28;20069;-78
2021/05/27 08:49:21;;;;;;;2.78;1.10;;;15.50;99.90;;;14.30;68.92;100650.59;4949439;28;20067;-77
2021/05/27 08:51:54;;;;;;;3.40;1.00;;;14.50;99.90;;;12.86;73.00;100663.59;4990752;28;20103;-77
2021/05/27 08:54:20;;;;;;;1.70;0.65;;;13.00;99.90;;;11.56;80.00;100663.59;4979135;28;20075;-77
2021/05/27 08:56:46;;;;;;;0.70;0.60;;;12.50;99.90;;;11.44;83.13;100672.97;4959224;28;20145;-77
2021/05/27 08:59:12;;;;;;;2.97;0.75;;;12.50;99.90;;;11.39;83.82;100682.06;4927530;28;20067;-78
2021/05/27 09:02:03;;;;;;;3.50;1.23;;;12.40;99.90;;;11.27;84.31;100689.66;4923808;28;20062;-77
2021/05/27 09:04:39;;;;;;;6.53;1.20;;;12.40;99.90;;;11.41;84.76;100688.09;4913783;28;20075;-77
2021/05/27 09:07:17;;;;;;;1.10;0.82;;;12.50;99.90;;;11.56;83.33;100694.38;4898104;28;20108;-77
2021/05/27 09:10:05;;;;;;;2.25;0.93;;;12.70;99.90;;;11.69;82.86;100685.75;4920723;28;20094;-78
2021/05/27 09:12:38;;;;;;;1.45;0.93;;;12.70;99.90;;;11.75;83.23;100689.00;4961683;28;20094;-79
2021/05/27 09:15:28;;;;;;;6.38;1.08;;;13.00;99.90;;;12.05;81.72;100690.06;4942982;28;20075;-77
2021/05/27 09:17:58;;;;;;;1.63;0.82;;;13.20;99.90;;;12.31;82.97;100688.66;4920233;28;20229;-77
2021/05/27 09:20:42;;;;;;;2.95;0.90;;;13.30;99.90;;;12.41;80.09;100691.63;4903357;28;20523;-77
2021/05/27 09:23:21;;;;;;;2.03;0.80;;;13.80;99.90;;;13.23;78.39;100690.53;4916984;28;20088;-77
2021/05/27 09:26:03;;;;;;;2.80;0.70;;;14.60;99.90;;;14.18;73.58;100683.16;4927097;28;20070;-77
2021/05/27 09:28:35;;;;;;;1.42;0.60;;;15.10;99.90;;;14.40;71.12;100686.13;4931373;28;20103;-79
2021/05/27 09:31:19;;;;;;;2.78;0.70;;;15.00;99.90;;;14.19;70.80;100688.34;4968843;28;20172;-77
2021/05/27 09:34:11;;;;;;;3.30;0.80;;;15.40;99.90;;;15.20;68.62;100694.25;4932730;28;20065;-78
2021/05/27 09:37:00;;;;;;;0.88;0.60;;;15.90;99.90;;;15.24;67.11;100681.66;4941247;28;20076;-79
2021/05/27 09:40:02;;;;;;;1.48;0.55;;;15.70;99.90;;;14.78;67.85;100693.47;4923399;28;20064;-78
2021/05/27 09:43:04;;;;;;;0.40;0.38;;;14.70;99.90;;;13.49;70.74;100704.91;4940804;28;20085;-80
2021/05/27 09:46:19;;;;;;;3.65;0.75;;;14.30;99.90;;;13.54;74.74;100699.34;4915546;28;20059;-78
2021/05/27 09:49:28;;;;;;;1.25;0.70;;;14.20;99.90;;;13.46;72.48;100698.97;4938843;28;20131;-79
2021/05/27 09:52:57;;;;;;;2.30;0.70;;;14.10;99.90;;;13.32;70.57;100708.53;4926554;28;20077;-78
2021/05/27 09:56:02;;;;;;;0.82;0.40;;;14.40;99.90;;;13.57;69.12;100712.41;4952904;28;20073;-78
2021/05/27 09:59:04;;;;;;;1.50;0.47;;;14.50;99.90;;;13.74;69.79;100704.31;4949870;28;20053;-78
2021/05/27 10:02:28;;;;;;;0.85;0.70;;;14.30;99.90;;;13.38;71.44;100717.06;4917435;28;20057;-79
2021/05/27 10:05:20;;;;;;;2.90;0.60;;;14.30;99.90;;;13.61;71.46;100713.94;4920084;28;20167;-78
2021/05/27 10:08:08;;;;;;;0.73;0.45;;;14.50;99.90;;;13.86;71.83;100715.94;4953902;28;20087;-78
2021/05/27 10:11:10;;;;;;;0.93;0.63;;;14.80;99.90;;;13.83;71.39;100713.47;5028126;28;20502;-77
2021/05/27 10:14:10;;;;;;;0.85;0.57;;;14.60;99.90;;;13.92;73.63;100714.72;4911598;28;20133;-77
2021/05/27 10:17:11;;;;;;;2.47;0.60;;;15.00;99.90;;;14.06;70.31;100720.03;4921131;28;20099;-77
2021/05/27 10:20:16;;;;;;;0.77;0.60;;;14.60;99.90;;;13.71;74.43;100725.66;4888350;28;20057;-78
2021/05/27 10:23:32;;;;;;;3.75;0.70;;;14.50;99.90;;;13.41;74.39;100736.28;4931893;28;20597;-78
2021/05/27 10:26:29;;;;;;;2.60;0.68;;;14.00;99.90;;;13.11;76.09;100741.50;4939503;28;20057;-77
2021/05/27 10:29:33;;;;;;;0.20;0.20;;;13.90;99.90;;;13.24;74.13;100731.91;4907937;28;20071;-77
2021/05/27 10:32:25;;;;;;;0.40;0.40;;;14.60;99.90;;;14.08;70.39;100735.81;4926059;28;20621;-78
2021/05/27 10:35:19;;;;;;;0.55;0.40;;;15.00;99.90;;;14.59;70.88;100733.56;4917774;28;20450;-77
2021/05/27 10:38:22;;;;;;;1.83;0.60;;;15.00;99.90;;;14.26;68.52;100737.34;4958299;28;20151;-78